Time;durP1;ratioP1;P1;durP2;ratioP2;P2;SDS_P1;SDS_P2;PMS_P1;PMS_P2;Temp;Humidity;BMP_temperature;BMP_pressure;BME280_temperature;BME280_humidity;BME280_pressure;Samples;Min_cycle;Max_cycle;Signal;HPM_P1;HPM_P2
2022/08/08 00:01:16;;;;;;;9.45;5.75;;;;;;;;;;5023977;28;20683;-85
2022/08/08 00:04:02;;;;;;;8.32;4.90;;;;;;;;;;5020632;28;20037;-85
2022/08/08 00:06:42;;;;;;;7.17;5.17;;;;;;;;;;5025056;28;20037;-85
2022/08/08 00:09:17;;;;;;;8.82;5.28;;;;;;;;;;5014163;28;20045;-85
2022/08/08 00:11:46;;;;;;;8.02;5.00;;;;;;;;;;5024260;28;20038;-85
2022/08/08 00:14:22;;;;;;;8.05;4.90;;;;;;;;;;5002068;28;20045;-85
2022/08/08 00:16:54;;;;;;;8.88;5.30;;;;;;;;;;5012941;28;20057;-85
2022/08/08 00:19:27;;;;;;;8.50;4.90;;;;;;;;;;5019065;28;20046;-85
2022/08/08 00:22:00;;;;;;;8.23;5.03;;;;;;;;;;5031710;28;20128;-85
2022/08/08 00:24:33;;;;;;;7.78;5.55;;;;;;;;;;5013957;28;20093;-85
2022/08/08 00:27:02;;;;;;;9.23;5.60;;;;;;;;;;5010641;28;20050;-85
2022/08/08 00:29:46;;;;;;;9.18;5.07;;;;;;;;;;5020396;28;20395;-85
2022/08/08 00:32:19;;;;;;;8.35;5.22;;;;;;;;;;4999539;28;20184;-85
2022/08/08 00:37:38;;;;;;;7.90;5.55;;;;;;;;;;5008819;28;20050;-85
2022/08/08 00:40:13;;;;;;;8.80;4.97;;;;;;;;;;5011661;28;20097;-85
2022/08/08 00:42:52;;;;;;;7.57;5.60;;;;;;;;;;5028495;28;20046;-85
2022/08/08 00:45:27;;;;;;;10.70;5.50;;;;;;;;;;5032199;28;20494;-85
2022/08/08 00:48:23;;;;;;;10.23;6.13;;;;;;;;;;5027649;28;20508;-85
2022/08/08 00:51:08;;;;;;;10.57;5.70;;;;;;;;;;5031349;28;20053;-85
2022/08/08 00:53:52;;;;;;;12.15;7.03;;;;;;;;;;5016782;28;20038;-85
2022/08/08 00:56:19;;;;;;;10.90;6.75;;;;;;;;;;5030471;28;20139;-85
2022/08/08 00:59:04;;;;;;;10.20;5.93;;;;;;;;;;5026222;28;20255;-85
2022/08/08 01:01:36;;;;;;;10.55;6.20;;;;;;;;;;5026101;28;20091;-85
2022/08/08 01:04:08;;;;;;;8.48;6.05;;;;;;;;;;4998013;28;20076;-85
2022/08/08 01:06:37;;;;;;;9.68;6.78;;;;;;;;;;5011568;28;20045;-84
2022/08/08 01:09:21;;;;;;;11.68;7.03;;;;;;;;;;5028323;28;20049;-85
2022/08/08 01:11:58;;;;;;;9.63;6.53;;;;;;;;;;5019573;28;20049;-84
2022/08/08 01:15:00;;;;;;;8.63;6.22;;;;;;;;;;5031651;28;20037;-85
2022/08/08 01:17:26;;;;;;;15.60;7.15;;;;;;;;;;4969158;28;20508;-85
2022/08/08 01:19:52;;;;;;;9.98;6.90;;;;;;;;;;4963759;28;20051;-84
2022/08/08 01:22:29;;;;;;;10.90;6.78;;;;;;;;;;4965400;28;20078;-84
2022/08/08 01:25:06;;;;;;;8.27;6.22;;;;;;;;;;4952307;28;20055;-85
2022/08/08 01:27:32;;;;;;;9.50;6.60;;;;;;;;;;4951762;28;20102;-84
2022/08/08 01:30:13;;;;;;;10.90;6.97;;;;;;;;;;4951843;28;20119;-84
2022/08/08 01:32:40;;;;;;;9.52;6.60;;;;;;;;;;4954107;28;20082;-85
2022/08/08 01:35:25;;;;;;;7.07;6.38;;;;;;;;;;4934365;28;20513;-84
2022/08/08 01:37:57;;;;;;;11.07;6.32;;;;;;;;;;4958930;28;20054;-85
2022/08/08 01:40:27;;;;;;;10.40;6.45;;;;;;;;;;4969401;28;20051;-85
2022/08/08 01:42:53;;;;;;;10.48;6.82;;;;;;;;;;4966615;28;20047;-84
2022/08/08 01:45:25;;;;;;;8.27;6.45;;;;;;;;;;4961223;28;20109;-84
2022/08/08 01:47:51;;;;;;;9.05;6.47;;;;;;;;;;4945980;28;20051;-85
2022/08/08 01:50:32;;;;;;;10.05;6.97;;;;;;;;;;4968286;28;20086;-85
2022/08/08 01:53:10;;;;;;;8.93;6.25;;;;;;;;;;5027166;28;20063;-84
2022/08/08 01:55:42;;;;;;;16.08;7.18;;;;;;;;;;4995817;28;20096;-84
2022/08/08 01:58:08;;;;;;;9.95;6.53;;;;;;;;;;5026098;28;20273;-85
2022/08/08 02:01:00;;;;;;;10.63;6.45;;;;;;;;;;5028873;28;20037;-84
2022/08/08 02:03:58;;;;;;;7.47;6.03;;;;;;;;;;5005051;28;20053;-85
2022/08/08 02:06:24;;;;;;;8.23;6.10;;;;;;;;;;4953915;28;20130;-85
2022/08/08 02:08:56;;;;;;;11.63;6.75;;;;;;;;;;4954025;28;20145;-85
2022/08/08 02:11:22;;;;;;;9.40;6.80;;;;;;;;;;4969079;28;20123;-84
2022/08/08 02:13:55;;;;;;;12.65;6.63;;;;;;;;;;4953903;28;20142;-84
2022/08/08 02:16:36;;;;;;;8.23;6.72;;;;;;;;;;4951872;28;20055;-84
2022/08/08 02:19:02;;;;;;;11.45;7.18;;;;;;;;;;4951643;28;20054;-84
2022/08/08 02:24:29;;;;;;;12.10;6.55;;;;;;;;;;4948862;29;20438;-85
2022/08/08 02:27:02;;;;;;;8.95;6.70;;;;;;;;;;4959364;28;20479;-85
2022/08/08 02:29:47;;;;;;;10.38;7.40;;;;;;;;;;4967716;28;20065;-85
2022/08/08 02:32:23;;;;;;;8.80;7.07;;;;;;;;;;4976787;28;20051;-84
2022/08/08 02:34:49;;;;;;;10.48;6.32;;;;;;;;;;4967404;28;20482;-84
2022/08/08 02:37:34;;;;;;;8.02;6.50;;;;;;;;;;4961019;28;20047;-84
2022/08/08 02:40:14;;;;;;;11.60;6.85;;;;;;;;;;4958379;28;20105;-84
2022/08/08 02:42:59;;;;;;;8.40;7.05;;;;;;;;;;4998926;28;20232;-84
2022/08/08 02:45:43;;;;;;;9.73;6.97;;;;;;;;;;5029551;28;20133;-84
2022/08/08 02:48:12;;;;;;;11.70;7.10;;;;;;;;;;5025152;28;20057;-85
2022/08/08 02:50:47;;;;;;;11.88;7.55;;;;;;;;;;5029531;28;20045;-85
2022/08/08 02:53:27;;;;;;;11.38;6.88;;;;;;;;;;5028702;28;20076;-84
2022/08/08 02:56:02;;;;;;;10.68;6.88;;;;;;;;;;5021482;28;20041;-84
2022/08/08 02:58:35;;;;;;;9.27;6.57;;;;;;;;;;5024657;28;20457;-85
2022/08/08 03:01:19;;;;;;;8.25;6.03;;;;;;;;;;5015803;28;20046;-84
2022/08/08 03:04:04;;;;;;;8.82;6.03;;;;;;;;;;5010358;28;20042;-85
2022/08/08 03:06:30;;;;;;;9.82;6.55;;;;;;;;;;5024821;28;20045;-85
2022/08/08 03:08:56;;;;;;;7.82;5.72;;;;;;;;;;5010572;28;20045;-84
2022/08/08 03:11:25;;;;;;;7.18;6.03;;;;;;;;;;5013551;28;20682;-85
2022/08/08 03:13:57;;;;;;;8.60;6.05;;;;;;;;;;5029979;28;20044;-84
2022/08/08 03:16:33;;;;;;;8.27;6.13;;;;;;;;;;5029117;28;20556;-84
2022/08/08 03:18:59;;;;;;;;;;;;;;;;;;4995146;28;20041;-84
2022/08/08 03:21:25;;;;;;;8.88;6.20;;;;;;;;;;5028742;28;19928;-84
2022/08/08 03:23:51;;;;;;;9.57;5.82;;;;;;;;;;5029147;28;20049;-85
2022/08/08 03:26:21;;;;;;;7.88;5.55;;;;;;;;;;5027345;28;20043;-85
2022/08/08 03:28:49;;;;;;;9.90;5.82;;;;;;;;;;5014945;28;20033;-84
2022/08/08 03:34:05;;;;;;;8.45;5.85;;;;;;;;;;5017057;28;20046;-85
2022/08/08 03:36:31;;;;;;;7.93;5.72;;;;;;;;;;5010537;28;20057;-85
2022/08/08 03:38:57;;;;;;;8.93;5.47;;;;;;;;;;5011064;28;20070;-85
2022/08/08 03:41:31;;;;;;;8.35;5.57;;;;;;;;;;5011913;28;20042;-85
2022/08/08 03:43:57;;;;;;;8.85;5.50;;;;;;;;;;4996087;28;20056;-85
2022/08/08 03:46:23;;;;;;;6.75;5.40;;;;;;;;;;5029331;28;20059;-85
2022/08/08 03:49:03;;;;;;;9.70;5.60;;;;;;;;;;5019761;28;20415;-85
2022/08/08 03:51:29;;;;;;;8.38;5.57;;;;;;;;;;5031908;28;20395;-85
2022/08/08 03:53:55;;;;;;;6.43;5.13;;;;;;;;;;5029010;28;20045;-85
2022/08/08 03:56:22;;;;;;;7.53;5.90;;;;;;;;;;5032610;28;20100;-85
2022/08/08 03:58:49;;;;;;;8.10;5.90;;;;;;;;;;5022140;28;20129;-85
2022/08/08 04:01:15;;;;;;;9.23;5.50;;;;;;;;;;5026997;28;20418;-85
2022/08/08 04:03:43;;;;;;;8.45;6.18;;;;;;;;;;5018877;28;20192;-85
2022/08/08 04:06:09;;;;;;;8.10;5.70;;;;;;;;;;5009451;28;20064;-84
2022/08/08 04:08:36;;;;;;;10.15;6.25;;;;;;;;;;5016767;28;20125;-85
2022/08/08 04:11:03;;;;;;;15.85;6.57;;;;;;;;;;5010610;28;20104;-85
2022/08/08 04:13:29;;;;;;;7.50;5.80;;;;;;;;;;5017210;28;20378;-85
2022/08/08 04:15:55;;;;;;;8.13;6.13;;;;;;;;;;5030826;28;20132;-85
2022/08/08 04:18:21;;;;;;;7.82;6.10;;;;;;;;;;5031491;28;20183;-84
2022/08/08 04:20:47;;;;;;;9.90;6.13;;;;;;;;;;5012624;28;20038;-85
2022/08/08 04:23:13;;;;;;;8.63;5.95;;;;;;;;;;5031566;28;20096;-84
2022/08/08 04:25:40;;;;;;;10.60;6.70;;;;;;;;;;5032251;28;20042;-84
2022/08/08 04:28:07;;;;;;;8.35;5.90;;;;;;;;;;5028425;28;20415;-85
2022/08/08 04:30:33;;;;;;;8.90;5.72;;;;;;;;;;5021928;28;20120;-85
2022/08/08 04:32:59;;;;;;;9.48;6.07;;;;;;;;;;5011054;28;20060;-85
2022/08/08 04:35:25;;;;;;;8.38;6.32;;;;;;;;;;5025355;28;20084;-85
2022/08/08 04:37:52;;;;;;;7.32;5.80;;;;;;;;;;5029746;28;20057;-85
2022/08/08 04:40:18;;;;;;;11.80;5.90;;;;;;;;;;5020160;28;20518;-85
2022/08/08 04:42:45;;;;;;;8.48;6.05;;;;;;;;;;5032957;28;20042;-85
2022/08/08 04:45:11;;;;;;;8.63;6.07;;;;;;;;;;5013981;28;20042;-85
2022/08/08 04:47:37;;;;;;;10.18;6.40;;;;;;;;;;5023778;28;20046;-85
2022/08/08 04:50:03;;;;;;;9.35;6.00;;;;;;;;;;5006306;28;20053;-85
2022/08/08 04:52:29;;;;;;;8.00;6.15;;;;;;;;;;5022770;28;20096;-85
2022/08/08 04:54:55;;;;;;;6.97;6.13;;;;;;;;;;5013325;28;20041;-84
2022/08/08 04:57:21;;;;;;;15.80;6.75;;;;;;;;;;5029898;28;20465;-84
2022/08/08 04:59:47;;;;;;;8.70;6.60;;;;;;;;;;5014272;28;20049;-85
2022/08/08 05:02:13;;;;;;;11.32;6.47;;;;;;;;;;5012114;28;20045;-85
2022/08/08 05:04:40;;;;;;;10.18;6.38;;;;;;;;;;5026923;28;20049;-85
2022/08/08 05:07:06;;;;;;;8.90;5.90;;;;;;;;;;5026054;28;20046;-85
2022/08/08 05:09:32;;;;;;;10.48;6.90;;;;;;;;;;5031566;28;20045;-85
2022/08/08 05:11:58;;;;;;;8.07;5.70;;;;;;;;;;5028976;28;20049;-85
2022/08/08 05:14:24;;;;;;;7.70;5.80;;;;;;;;;;5014278;28;20132;-85
2022/08/08 05:16:50;;;;;;;9.80;5.93;;;;;;;;;;5014759;28;20041;-85
2022/08/08 05:19:17;;;;;;;8.65;5.88;;;;;;;;;;5027447;28;20042;-85
2022/08/08 05:21:43;;;;;;;8.68;6.32;;;;;;;;;;5021199;28;20045;-85
2022/08/08 05:24:10;;;;;;;9.68;6.30;;;;;;;;;;5013679;28;20478;-85
2022/08/08 05:26:37;;;;;;;10.07;6.78;;;;;;;;;;5016962;28;20084;-85
2022/08/08 05:29:07;;;;;;;9.68;6.40;;;;;;;;;;5012588;28;20088;-86
2022/08/08 05:31:33;;;;;;;7.93;6.10;;;;;;;;;;5030417;28;20038;-85
2022/08/08 05:33:59;;;;;;;8.75;5.97;;;;;;;;;;5026646;28;20517;-85
2022/08/08 05:36:26;;;;;;;9.63;5.63;;;;;;;;;;5019785;28;20049;-85
2022/08/08 05:38:52;;;;;;;6.30;5.57;;;;;;;;;;5025001;28;20053;-85
2022/08/08 05:41:21;;;;;;;8.45;4.97;;;;;;;;;;5028761;28;20041;-85
2022/08/08 05:43:47;;;;;;;7.07;4.60;;;;;;;;;;5031515;28;20049;-85
2022/08/08 05:46:14;;;;;;;6.10;4.25;;;;;;;;;;5029974;28;20057;-86
2022/08/08 05:48:40;;;;;;;6.00;4.65;;;;;;;;;;5030703;28;20119;-85
2022/08/08 05:51:06;;;;;;;5.70;4.07;;;;;;;;;;4997227;28;20133;-85
2022/08/08 05:53:32;;;;;;;6.03;4.35;;;;;;;;;;5030186;28;20049;-90
2022/08/08 05:55:59;;;;;;;5.68;3.95;;;;;;;;;;5002689;28;20061;-86
2022/08/08 05:58:28;;;;;;;4.65;3.70;;;;;;;;;;4996895;28;20097;-90
2022/08/08 06:00:59;;;;;;;6.72;3.83;;;;;;;;;;4998148;28;20065;-86
2022/08/08 06:03:25;;;;;;;6.47;3.92;;;;;;;;;;5012150;28;20046;-85
2022/08/08 06:05:51;;;;;;;4.32;3.20;;;;;;;;;;5005591;28;20068;-85
2022/08/08 06:08:28;;;;;;;7.07;3.85;;;;;;;;;;5012097;28;20041;-84
2022/08/08 06:10:54;;;;;;;4.68;3.70;;;;;;;;;;5012126;28;20079;-85
2022/08/08 06:13:21;;;;;;;5.32;3.78;;;;;;;;;;5024381;28;20056;-84
2022/08/08 06:15:48;;;;;;;5.95;4.13;;;;;;;;;;5019145;28;20050;-84
2022/08/08 06:18:15;;;;;;;6.18;4.00;;;;;;;;;;5028885;28;20128;-85
2022/08/08 06:20:41;;;;;;;8.75;4.57;;;;;;;;;;5020390;28;20046;-84
2022/08/08 06:23:07;;;;;;;10.38;4.88;;;;;;;;;;5017299;28;20052;-84
2022/08/08 06:25:39;;;;;;;10.68;4.53;;;;;;;;;;5023593;28;20049;-83
2022/08/08 06:28:14;;;;;;;9.50;4.30;;;;;;;;;;5020314;28;20068;-83
2022/08/08 06:30:41;;;;;;;4.97;3.53;;;;;;;;;;5026344;28;20042;-83
2022/08/08 06:33:10;;;;;;;5.93;3.53;;;;;;;;;;5010744;28;20084;-83
2022/08/08 06:35:39;;;;;;;6.07;3.80;;;;;;;;;;4993196;28;20057;-83
2022/08/08 06:38:06;;;;;;;7.97;4.15;;;;;;;;;;5010252;28;20540;-83
2022/08/08 06:40:33;;;;;;;6.07;3.72;;;;;;;;;;5023001;28;20494;-83
2022/08/08 06:43:09;;;;;;;5.75;3.72;;;;;;;;;;5009869;28;20354;-84
2022/08/08 06:45:37;;;;;;;4.72;3.58;;;;;;;;;;5010584;28;20137;-84
2022/08/08 06:48:04;;;;;;;5.07;3.03;;;;;;;;;;5021979;28;20524;-84
2022/08/08 06:50:31;;;;;;;3.90;2.90;;;;;;;;;;5000428;28;20104;-83
2022/08/08 06:52:59;;;;;;;5.00;2.90;;;;;;;;;;5010326;28;20109;-83
2022/08/08 06:55:25;;;;;;;8.85;3.20;;;;;;;;;;5028322;28;20053;-84
2022/08/08 06:57:51;;;;;;;3.55;3.20;;;;;;;;;;5016705;28;20376;-84
2022/08/08 07:00:17;;;;;;;5.05;3.50;;;;;;;;;;5013607;28;20052;-84
2022/08/08 07:02:53;;;;;;;7.10;3.83;;;;;;;;;;5030122;28;20482;-84
2022/08/08 07:05:24;;;;;;;5.18;3.47;;;;;;;;;;5019630;28;20141;-86
2022/08/08 07:07:53;;;;;;;8.75;4.13;;;;;;;;;;4992593;28;20058;-89
2022/08/08 07:10:20;;;;;;;11.65;5.63;;;;;;;;;;4993286;28;20064;-84
2022/08/08 07:12:49;;;;;;;8.20;4.47;;;;;;;;;;5012793;28;20037;-84
2022/08/08 07:15:15;;;;;;;6.47;3.50;;;;;;;;;;5008076;28;20092;-84
2022/08/08 07:17:51;;;;;;;5.70;3.53;;;;;;;;;;5011659;28;20068;-87
2022/08/08 07:20:18;;;;;;;12.10;4.97;;;;;;;;;;5013294;28;20546;-83
2022/08/08 07:22:51;;;;;;;3.80;2.70;;;;;;;;;;5018255;28;20037;-84
2022/08/08 07:25:18;;;;;;;6.43;3.00;;;;;;;;;;5016605;28;20071;-83
2022/08/08 07:27:50;;;;;;;13.77;4.57;;;;;;;;;;5012556;28;20072;-82
2022/08/08 07:30:16;;;;;;;14.45;4.88;;;;;;;;;;5010985;28;20098;-82
2022/08/08 07:32:42;;;;;;;6.50;2.50;;;;;;;;;;5023893;28;20483;-83
2022/08/08 07:35:09;;;;;;;12.10;4.47;;;;;;;;;;5010485;28;20045;-83
2022/08/08 07:37:35;;;;;;;22.83;7.63;;;;;;;;;;5029605;28;20555;-83
2022/08/08 07:40:02;;;;;;;4.38;2.65;;;;;;;;;;5016749;28;20053;-82
2022/08/08 07:42:31;;;;;;;13.55;5.43;;;;;;;;;;5011405;28;20407;-83
2022/08/08 07:44:58;;;;;;;5.53;2.53;;;;;;;;;;5012948;28;20128;-83
2022/08/08 07:47:24;;;;;;;3.83;2.35;;;;;;;;;;5009867;28;20514;-82
2022/08/08 07:49:50;;;;;;;4.80;2.45;;;;;;;;;;5009759;28;20453;-82
2022/08/08 07:52:16;;;;;;;3.67;2.30;;;;;;;;;;5011717;28;20633;-83
2022/08/08 07:54:43;;;;;;;5.88;2.58;;;;;;;;;;5020757;28;20045;-83
2022/08/08 07:57:12;;;;;;;3.72;2.65;;;;;;;;;;5009019;28;20525;-83
2022/08/08 07:59:46;;;;;;;4.03;2.58;;;;;;;;;;5020741;28;20042;-83
2022/08/08 08:02:15;;;;;;;3.95;2.50;;;;;;;;;;5014590;28;20315;-85
2022/08/08 08:04:43;;;;;;;4.25;2.53;;;;;;;;;;5012584;28;20041;-85
2022/08/08 08:07:09;;;;;;;4.30;2.50;;;;;;;;;;5022414;28;20064;-85
2022/08/08 08:09:37;;;;;;;3.65;2.53;;;;;;;;;;5025497;28;20092;-85
2022/08/08 08:12:03;;;;;;;5.32;2.10;;;;;;;;;;5016532;28;20116;-85
2022/08/08 08:14:37;;;;;;;3.35;2.30;;;;;;;;;;5028032;28;20053;-85
2022/08/08 08:17:03;;;;;;;4.25;2.20;;;;;;;;;;5011244;28;20052;-85
2022/08/08 08:19:32;;;;;;;3.63;2.20;;;;;;;;;;5019250;28;20553;-85
2022/08/08 08:21:58;;;;;;;4.53;2.50;;;;;;;;;;4998771;28;20045;-85
2022/08/08 08:24:24;;;;;;;2.65;2.10;;;;;;;;;;5023577;28;20045;-89
2022/08/08 08:26:50;;;;;;;2.38;2.17;;;;;;;;;;5019903;28;20434;-85
2022/08/08 08:29:16;;;;;;;4.60;2.40;;;;;;;;;;4995008;28;20514;-83
2022/08/08 08:31:42;;;;;;;4.95;2.55;;;;;;;;;;5016363;28;20137;-85
2022/08/08 08:34:08;;;;;;;6.47;2.72;;;;;;;;;;5002912;28;20053;-85
2022/08/08 08:36:34;;;;;;;4.72;2.42;;;;;;;;;;5003223;28;20053;-85
2022/08/08 08:39:01;;;;;;;5.05;3.05;;;;;;;;;;5011840;28;20056;-84
2022/08/08 08:41:27;;;;;;;6.28;2.63;;;;;;;;;;4999411;28;20791;-84
2022/08/08 08:43:54;;;;;;;3.55;2.25;;;;;;;;;;5032302;28;20103;-85
2022/08/08 08:46:20;;;;;;;3.80;2.35;;;;;;;;;;5031854;28;20123;-84
2022/08/08 08:48:46;;;;;;;6.25;2.50;;;;;;;;;;5011030;28;20089;-85
2022/08/08 08:51:14;;;;;;;5.22;2.70;;;;;;;;;;5012470;28;20156;-84
2022/08/08 08:53:43;;;;;;;4.88;2.60;;;;;;;;;;5012212;28;20542;-85
2022/08/08 08:56:10;;;;;;;4.13;2.88;;;;;;;;;;5017414;28;20057;-84
2022/08/08 08:58:43;;;;;;;5.35;2.83;;;;;;;;;;5015630;28;20054;-84
2022/08/08 09:01:11;;;;;;;3.15;2.42;;;;;;;;;;5012074;28;20107;-85
2022/08/08 09:03:41;;;;;;;5.32;2.78;;;;;;;;;;4995110;28;20061;-84
2022/08/08 09:06:12;;;;;;;3.85;2.90;;;;;;;;;;5000269;28;20052;-84
2022/08/08 09:08:38;;;;;;;3.63;2.97;;;;;;;;;;5031685;28;20124;-84
2022/08/08 09:11:06;;;;;;;3.85;2.70;;;;;;;;;;5014010;28;20328;-84
2022/08/08 09:13:33;;;;;;;3.38;2.33;;;;;;;;;;5020637;28;20056;-86
2022/08/08 09:16:00;;;;;;;6.18;2.80;;;;;;;;;;5012766;28;20052;-85
2022/08/08 09:18:26;;;;;;;4.22;2.70;;;;;;;;;;4999174;28;20053;-85
2022/08/08 09:20:53;;;;;;;3.55;2.10;;;;;;;;;;5012230;28;20049;-85
2022/08/08 09:23:19;;;;;;;4.30;2.67;;;;;;;;;;5011584;28;20038;-85
2022/08/08 09:25:51;;;;;;;4.45;2.65;;;;;;;;;;5027710;28;20516;-85
2022/08/08 09:28:18;;;;;;;5.18;2.92;;;;;;;;;;5000602;28;20038;-85
2022/08/08 09:30:47;;;;;;;5.05;2.70;;;;;;;;;;5012072;28;20038;-85
2022/08/08 09:33:15;;;;;;;4.65;2.70;;;;;;;;;;5027412;28;20218;-85
2022/08/08 09:35:44;;;;;;;4.53;2.53;;;;;;;;;;5030410;28;20213;-85
2022/08/08 09:38:15;;;;;;;5.05;2.75;;;;;;;;;;5017743;28;20048;-85
2022/08/08 09:40:41;;;;;;;3.47;2.60;;;;;;;;;;4994061;28;20057;-85
2022/08/08 09:43:10;;;;;;;3.92;2.42;;;;;;;;;;4993904;28;20050;-85
2022/08/08 09:45:40;;;;;;;4.60;2.60;;;;;;;;;;4994424;28;20133;-85
2022/08/08 09:48:08;;;;;;;3.63;2.47;;;;;;;;;;5011101;28;20133;-85
2022/08/08 09:50:34;;;;;;;3.20;2.53;;;;;;;;;;4993944;28;20048;-85
2022/08/08 09:53:01;;;;;;;3.17;2.50;;;;;;;;;;4993579;28;20089;-85
2022/08/08 09:55:30;;;;;;;3.83;2.70;;;;;;;;;;5011539;28;20096;-85
2022/08/08 09:58:06;;;;;;;3.45;2.28;;;;;;;;;;5011244;28;20121;-85
2022/08/08 10:00:37;;;;;;;5.18;2.40;;;;;;;;;;4993843;28;20129;-85
2022/08/08 10:03:04;;;;;;;6.00;2.95;;;;;;;;;;5001681;28;20076;-85
2022/08/08 10:05:37;;;;;;;5.15;2.53;;;;;;;;;;5030945;28;20520;-85
2022/08/08 10:08:04;;;;;;;3.67;2.50;;;;;;;;;;5030261;28;20042;-85
2022/08/08 10:10:32;;;;;;;4.82;2.30;;;;;;;;;;5031095;28;20049;-85
2022/08/08 10:13:02;;;;;;;5.35;2.63;;;;;;;;;;5017672;28;20050;-85
2022/08/08 10:15:36;;;;;;;4.45;2.38;;;;;;;;;;5011042;28;20414;-85
2022/08/08 10:18:03;;;;;;;3.58;2.40;;;;;;;;;;5003355;28;20056;-85
2022/08/08 10:20:37;;;;;;;4.57;2.58;;;;;;;;;;5012846;28;20104;-86
2022/08/08 10:23:03;;;;;;;4.05;2.45;;;;;;;;;;5012362;28;20059;-86
2022/08/08 10:25:29;;;;;;;3.88;2.60;;;;;;;;;;5014891;28;20041;-86
2022/08/08 10:27:55;;;;;;;4.75;2.55;;;;;;;;;;5010569;28;20052;-86
2022/08/08 10:30:23;;;;;;;3.80;2.17;;;;;;;;;;5010867;28;20045;-85
2022/08/08 10:32:53;;;;;;;4.60;2.40;;;;;;;;;;5006187;28;20372;-86
2022/08/08 10:35:21;;;;;;;5.10;2.63;;;;;;;;;;5021597;28;20132;-86
2022/08/08 10:37:56;;;;;;;5.03;2.10;;;;;;;;;;5009540;28;20041;-86
2022/08/08 10:40:23;;;;;;;2.92;2.45;;;;;;;;;;5012530;28;20061;-86
2022/08/08 10:42:53;;;;;;;4.65;2.72;;;;;;;;;;5029910;28;20060;-86
2022/08/08 10:45:19;;;;;;;4.55;2.30;;;;;;;;;;5030513;28;20146;-86
2022/08/08 10:47:52;;;;;;;3.30;2.28;;;;;;;;;;5027738;28;20050;-86
2022/08/08 10:50:18;;;;;;;3.53;2.10;;;;;;;;;;5018443;28;20073;-87
2022/08/08 10:52:44;;;;;;;3.78;2.85;;;;;;;;;;5013405;28;20046;-85
2022/08/08 10:55:12;;;;;;;4.10;2.40;;;;;;;;;;5028339;28;20545;-86
2022/08/08 10:57:42;;;;;;;4.20;2.35;;;;;;;;;;5010653;28;20050;-85
2022/08/08 11:00:09;;;;;;;3.08;2.45;;;;;;;;;;5010253;28;20057;-86
2022/08/08 11:02:35;;;;;;;3.55;2.40;;;;;;;;;;4993753;28;20058;-85
2022/08/08 11:05:09;;;;;;;3.08;2.20;;;;;;;;;;4992040;28;20407;-85
2022/08/08 11:07:36;;;;;;;2.97;2.30;;;;;;;;;;5018622;28;20255;-86
2022/08/08 11:10:04;;;;;;;4.10;2.42;;;;;;;;;;5011983;28;20450;-86
2022/08/08 11:12:32;;;;;;;3.22;2.20;;;;;;;;;;5030054;28;20076;-85
2022/08/08 11:14:59;;;;;;;3.35;2.30;;;;;;;;;;5028356;28;20045;-85
2022/08/08 11:17:29;;;;;;;2.72;1.80;;;;;;;;;;4992645;28;20491;-85
2022/08/08 11:19:55;;;;;;;5.30;2.40;;;;;;;;;;4991798;28;20415;-86
2022/08/08 11:22:29;;;;;;;3.13;2.15;;;;;;;;;;5010037;28;20045;-85
2022/08/08 11:24:59;;;;;;;4.57;2.00;;;;;;;;;;4992041;28;20181;-85
2022/08/08 11:27:27;;;;;;;4.93;2.20;;;;;;;;;;5028413;28;20088;-86
2022/08/08 11:29:56;;;;;;;4.32;2.25;;;;;;;;;;5029925;28;20048;-86
2022/08/08 11:32:24;;;;;;;4.38;2.47;;;;;;;;;;5023378;28;20046;-85
2022/08/08 11:34:56;;;;;;;2.95;2.10;;;;;;;;;;5007041;28;20104;-85
2022/08/08 11:37:23;;;;;;;2.67;1.90;;;;;;;;;;5018230;28;20061;-85
2022/08/08 11:39:49;;;;;;;5.45;2.20;;;;;;;;;;5029290;28;20056;-84
2022/08/08 11:42:16;;;;;;;3.28;2.15;;;;;;;;;;5019479;28;20556;-85
2022/08/08 11:44:44;;;;;;;4.32;2.30;;;;;;;;;;5029234;28;20123;-85
2022/08/08 11:47:10;;;;;;;3.08;2.10;;;;;;;;;;5011923;28;20054;-85
2022/08/08 11:49:37;;;;;;;4.57;2.28;;;;;;;;;;5010144;28;20111;-85
2022/08/08 11:52:05;;;;;;;4.57;2.47;;;;;;;;;;4993770;28;20139;-85
2022/08/08 11:54:32;;;;;;;5.07;2.40;;;;;;;;;;5025344;28;20049;-85
2022/08/08 11:57:11;;;;;;;3.40;2.13;;;;;;;;;;5017328;28;20418;-85
2022/08/08 11:59:42;;;;;;;2.97;2.15;;;;;;;;;;5022133;28;20410;-85
2022/08/08 12:02:08;;;;;;;2.85;2.28;;;;;;;;;;5010442;28;20077;-85
2022/08/08 12:04:37;;;;;;;3.00;2.20;;;;;;;;;;5031789;28;20045;-85
2022/08/08 12:07:07;;;;;;;2.67;2.10;;;;;;;;;;5030507;28;20042;-85
2022/08/08 12:09:33;;;;;;;3.80;2.10;;;;;;;;;;5011636;28;20042;-85
2022/08/08 12:12:00;;;;;;;4.00;2.47;;;;;;;;;;5028970;28;20166;-85
2022/08/08 12:14:26;;;;;;;4.32;2.10;;;;;;;;;;5032694;28;20034;-85
2022/08/08 12:16:52;;;;;;;3.47;2.35;;;;;;;;;;5019919;28;20042;-85
2022/08/08 12:19:19;;;;;;;4.80;2.90;;;;;;;;;;5027555;28;20060;-84
2022/08/08 12:21:45;;;;;;;4.28;2.33;;;;;;;;;;5021206;28;20417;-84
2022/08/08 12:24:22;;;;;;;4.05;3.00;;;;;;;;;;5027325;28;20052;-84
2022/08/08 12:26:52;;;;;;;6.10;2.47;;;;;;;;;;5031753;28;20058;-85
2022/08/08 12:29:36;;;;;;;4.35;2.30;;;;;;;;;;5032618;28;20037;-84
2022/08/08 12:32:15;;;;;;;3.85;2.65;;;;;;;;;;5012761;28;20402;-84
2022/08/08 12:34:41;;;;;;;5.57;2.60;;;;;;;;;;5007645;28;20494;-84
2022/08/08 12:37:11;;;;;;;2.88;2.30;;;;;;;;;;5030846;28;20041;-84
2022/08/08 12:39:37;;;;;;;3.88;2.97;;;;;;;;;;5029446;28;20045;-84
2022/08/08 12:42:03;;;;;;;3.80;2.60;;;;;;;;;;5022967;28;20450;-84
2022/08/08 12:44:31;;;;;;;3.42;2.53;;;;;;;;;;5012977;28;20486;-84
2022/08/08 12:46:58;;;;;;;4.63;2.50;;;;;;;;;;5002474;28;20050;-84
2022/08/08 12:49:28;;;;;;;5.72;2.47;;;;;;;;;;5005866;28;20064;-84
2022/08/08 12:51:54;;;;;;;3.55;2.80;;;;;;;;;;5004338;28;20487;-84
2022/08/08 12:54:21;;;;;;;4.50;2.60;;;;;;;;;;5011072;28;20491;-84
2022/08/08 12:56:47;;;;;;;4.28;2.60;;;;;;;;;;5012289;28;20084;-84
2022/08/08 12:59:22;;;;;;;5.20;2.85;;;;;;;;;;4999169;28;20289;-84
2022/08/08 13:01:53;;;;;;;3.03;2.40;;;;;;;;;;4999261;28;20706;-84
2022/08/08 13:04:20;;;;;;;4.95;2.45;;;;;;;;;;5011517;28;20097;-84
2022/08/08 13:06:52;;;;;;;5.55;2.70;;;;;;;;;;5005058;28;20050;-86
2022/08/08 13:09:28;;;;;;;5.95;2.55;;;;;;;;;;5010664;28;20165;-85
2022/08/08 13:11:54;;;;;;;3.30;2.40;;;;;;;;;;5012132;28;20455;-85
2022/08/08 13:14:20;;;;;;;4.47;2.53;;;;;;;;;;5010623;28;20427;-84
2022/08/08 13:16:47;;;;;;;4.30;2.40;;;;;;;;;;5010906;28;20096;-84
2022/08/08 13:19:14;;;;;;;3.92;2.58;;;;;;;;;;5001017;28;20137;-85
2022/08/08 13:21:43;;;;;;;3.65;2.83;;;;;;;;;;4993155;28;20046;-84
2022/08/08 13:24:10;;;;;;;3.17;2.45;;;;;;;;;;4993836;28;20053;-85
2022/08/08 13:26:36;;;;;;;3.08;2.70;;;;;;;;;;4991600;28;20054;-84
2022/08/08 13:29:12;;;;;;;3.72;2.45;;;;;;;;;;5007418;28;20073;-85
2022/08/08 13:31:51;;;;;;;4.88;2.40;;;;;;;;;;4991378;28;20058;-85
2022/08/08 13:34:20;;;;;;;3.38;2.70;;;;;;;;;;4992279;28;20096;-85
2022/08/08 13:36:46;;;;;;;4.75;2.80;;;;;;;;;;4991266;28;20398;-84
2022/08/08 13:39:16;;;;;;;5.22;2.80;;;;;;;;;;4992437;28;20050;-85
2022/08/08 13:41:42;;;;;;;3.58;2.40;;;;;;;;;;5004582;28;20050;-84
2022/08/08 13:44:12;;;;;;;4.30;2.35;;;;;;;;;;4990416;28;20047;-85
2022/08/08 13:46:38;;;;;;;4.15;2.60;;;;;;;;;;4997221;28;20495;-85
2022/08/08 13:49:14;;;;;;;4.22;2.72;;;;;;;;;;4997219;28;20058;-84
2022/08/08 13:51:51;;;;;;;4.13;2.78;;;;;;;;;;4994201;28;20065;-85
2022/08/08 13:54:21;;;;;;;3.92;2.90;;;;;;;;;;5027076;28;20064;-85
2022/08/08 13:56:47;;;;;;;3.90;2.80;;;;;;;;;;5013648;28;20076;-84
2022/08/08 13:59:13;;;;;;;3.25;2.40;;;;;;;;;;5011654;28;20064;-85
2022/08/08 14:01:39;;;;;;;3.78;2.72;;;;;;;;;;5013664;28;20481;-85
2022/08/08 14:04:05;;;;;;;5.63;2.40;;;;;;;;;;5008679;28;20052;-85
2022/08/08 14:06:32;;;;;;;3.78;2.40;;;;;;;;;;5013280;28;20120;-86
2022/08/08 14:08:58;;;;;;;3.33;2.40;;;;;;;;;;5022885;28;20042;-87
2022/08/08 14:11:26;;;;;;;5.10;2.30;;;;;;;;;;5005628;28;20050;-86
2022/08/08 14:13:52;;;;;;;3.22;2.50;;;;;;;;;;5011899;28;20077;-86
2022/08/08 14:16:19;;;;;;;4.80;2.30;;;;;;;;;;5030935;28;20046;-86
2022/08/08 14:18:49;;;;;;;4.88;2.53;;;;;;;;;;5027917;28;20052;-86
2022/08/08 14:21:15;;;;;;;5.82;2.53;;;;;;;;;;5012914;28;20441;-86
2022/08/08 14:23:45;;;;;;;3.35;2.47;;;;;;;;;;5030872;28;20501;-86
2022/08/08 14:26:25;;;;;;;3.47;2.20;;;;;;;;;;5012158;28;20052;-86
2022/08/08 14:28:55;;;;;;;3.28;2.30;;;;;;;;;;5011553;28;20107;-86
2022/08/08 14:31:21;;;;;;;4.50;2.40;;;;;;;;;;5013051;28;20140;-86
2022/08/08 14:33:51;;;;;;;2.50;2.30;;;;;;;;;;5010442;28;20399;-86
2022/08/08 14:36:17;;;;;;;4.15;2.15;;;;;;;;;;5012910;28;20038;-86
2022/08/08 14:38:43;;;;;;;4.93;2.30;;;;;;;;;;4993017;28;20439;-86
2022/08/08 14:41:10;;;;;;;2.83;2.00;;;;;;;;;;5009729;28;20513;-86
2022/08/08 14:43:44;;;;;;;3.22;1.88;;;;;;;;;;4999808;28;20042;-86
2022/08/08 14:46:13;;;;;;;3.38;2.00;;;;;;;;;;5001983;28;20050;-89
2022/08/08 14:48:41;;;;;;;3.25;2.20;;;;;;;;;;4997617;28;20408;-86
2022/08/08 14:51:07;;;;;;;3.88;2.40;;;;;;;;;;5017289;28;20049;-86
2022/08/08 14:53:37;;;;;;;5.28;2.50;;;;;;;;;;5025590;28;20045;-86
2022/08/08 14:56:03;;;;;;;7.70;2.75;;;;;;;;;;5026283;28;20049;-87
2022/08/08 14:58:29;;;;;;;3.53;2.00;;;;;;;;;;4994599;28;20049;-84
2022/08/08 15:00:55;;;;;;;6.22;3.00;;;;;;;;;;5012031;28;20045;-87
2022/08/08 15:03:21;;;;;;;4.65;2.50;;;;;;;;;;5026437;28;20049;-86